Time;durP1;ratioP1;P1;durP2;ratioP2;P2;SDS_P1;SDS_P2;PMS_P1;PMS_P2;Temp;Humidity;BMP_temperature;BMP_pressure;BME280_temperature;BME280_humidity;BME280_pressure;Samples;Min_cycle;Max_cycle;Signal;HPM_P1;HPM_P2
2022/05/24 00:00:01;;;;;;;6.97;6.37;;;;;;;17.01;88.38;99715.81;5010968;28;20286;-73
2022/05/24 00:02:27;;;;;;;7.00;6.40;;;;;;;16.90;89.02;99713.50;5012843;28;20227;-74
2022/05/24 00:04:52;;;;;;;7.90;6.53;;;;;;;16.91;88.84;99710.00;5012753;28;20670;-72
2022/05/24 00:07:18;;;;;;;7.03;6.10;;;;;;;16.94;88.21;99704.78;5012247;28;20207;-73
2022/05/24 00:09:43;;;;;;;7.63;6.83;;;;;;;16.91;88.22;99702.25;5011117;28;20194;-74
2022/05/24 00:12:09;;;;;;;7.37;6.43;;;;;;;16.90;88.14;99704.91;5011973;28;20186;-74
2022/05/24 00:17:18;;;;;;;6.97;6.27;;;;;;;16.94;87.74;99699.59;5012142;28;20676;-73
2022/05/24 00:19:44;;;;;;;7.10;6.37;;;;;;;16.92;87.07;99703.97;5012474;28;20599;-74
2022/05/24 00:22:10;;;;;;;7.13;6.00;;;;;;;16.85;87.23;99705.00;5010684;28;20273;-73
2022/05/24 00:24:35;;;;;;;7.40;6.10;;;;;;;16.86;86.55;99705.84;5012567;28;20669;-74
2022/05/24 00:27:00;;;;;;;6.17;5.63;;;;;;;16.88;85.84;99704.94;5012151;28;20213;-73
2022/05/24 00:29:26;;;;;;;7.47;5.97;;;;;;;16.89;83.49;99716.09;5009678;28;20195;-73
2022/05/24 00:31:51;;;;;;;7.77;6.10;;;;;;;16.84;84.28;99713.66;5010921;28;20198;-73
2022/05/24 00:34:16;;;;;;;6.57;5.77;;;;;;;16.79;84.00;99715.50;5012172;28;20211;-72
2022/05/24 00:36:42;;;;;;;7.57;5.70;;;;;;;16.90;83.21;99717.84;5010987;28;20234;-73
2022/05/24 00:39:07;;;;;;;6.07;5.47;;;;;;;16.92;82.01;99722.06;5011951;28;20270;-74
2022/05/24 00:41:43;;;;;;;8.17;6.30;;;;;;;16.92;82.40;99727.25;5011935;28;20199;-73
2022/05/24 00:44:23;;;;;;;7.37;6.43;;;;;;;16.94;84.16;99730.63;5011897;28;20721;-74
2022/05/24 00:46:55;;;;;;;11.57;6.80;;;;;;;16.94;84.93;99722.88;5012491;28;20210;-74
2022/05/24 00:49:25;;;;;;;8.67;6.80;;;;;;;16.92;85.25;99719.50;5008223;28;20238;-73
2022/05/24 00:51:56;;;;;;;7.00;6.40;;;;;;;16.96;85.08;99722.84;5002580;28;20237;-74
2022/05/24 00:54:21;;;;;;;7.27;6.60;;;;;;;16.95;86.38;99731.50;5012239;28;20191;-72
2022/05/24 00:56:52;;;;;;;7.23;6.53;;;;;;;16.96;84.61;99730.59;5011332;28;20896;-74
2022/05/24 00:59:34;;;;;;;8.90;6.70;;;;;;;16.96;84.71;99730.59;5012046;28;20202;-73
2022/05/24 01:02:00;;;;;;;7.23;6.53;;;;;;;16.96;85.39;99728.03;5010169;28;20197;-74
2022/05/24 01:04:25;;;;;;;7.40;6.50;;;;;;;16.92;86.79;99731.56;5011685;28;20274;-74
2022/05/24 01:06:50;;;;;;;8.00;7.20;;;;;;;16.91;86.92;99735.88;5011258;28;21054;-74
2022/05/24 01:09:24;;;;;;;9.80;7.17;;;;;;;16.92;86.27;99726.38;5008375;28;20644;-73
2022/05/24 01:11:54;;;;;;;8.53;7.40;;;;;;;16.93;86.44;99736.69;5011227;28;20184;-74
2022/05/24 01:14:22;;;;;;;8.30;7.43;;;;;;;16.92;86.89;99742.78;5011071;28;20206;-74
2022/05/24 01:16:50;;;;;;;8.80;7.90;;;;;;;16.95;86.36;99744.44;5011645;28;20207;-74
2022/05/24 01:19:31;;;;;;;9.40;7.40;;;;;;;16.96;86.96;99740.94;5010993;28;20186;-73
2022/05/24 01:22:05;;;;;;;8.27;7.37;;;;;;;16.89;87.10;99752.31;5011172;28;20195;-73
2022/05/24 01:24:50;;;;;;;9.00;8.10;;;;;;;16.83;88.26;99748.16;5010586;28;20190;-73
2022/05/24 01:27:15;;;;;;;8.83;8.03;;;;;;;16.85;88.69;99755.88;5006712;28;20207;-74
2022/05/24 01:29:40;;;;;;;9.23;8.33;;;;;;;16.80;88.30;99747.38;5021158;28;20206;-73
2022/05/24 01:37:34;;;;;;;9.53;8.50;;;;;;;16.77;90.33;99755.22;5009533;28;20219;-74
2022/05/24 01:40:02;;;;;;;10.77;9.60;;;;;;;16.79;90.47;99774.97;5010553;28;20198;-73
2022/05/24 01:42:28;;;;;;;12.20;11.00;;;;;;;16.79;91.96;99768.94;5010226;28;20649;-73
2022/05/24 01:45:03;;;;;;;13.27;11.57;;;;;;;16.85;92.89;99774.81;5010858;28;20191;-73
2022/05/24 01:47:31;;;;;;;15.30;13.80;;;;;;;16.86;93.81;99778.28;5010211;28;20207;-73
2022/05/24 01:50:01;;;;;;;15.70;14.07;;;;;;;16.87;94.51;99783.41;5010681;28;20195;-73
2022/05/24 01:52:34;;;;;;;17.73;15.93;;;;;;;16.89;95.52;99786.78;5005750;28;20297;-73
2022/05/24 01:55:10;;;;;;;20.57;18.57;;;;;;;16.91;95.82;99797.13;5009956;28;20839;-73
2022/05/24 01:57:45;;;;;;;18.17;16.37;;;;;;;16.92;96.38;99798.81;5005704;28;20237;-71
2022/05/24 02:00:12;;;;;;;19.60;17.80;;;;;;;16.90;96.99;99800.59;5010622;28;20214;-73
2022/05/24 02:02:44;;;;;;;20.03;17.93;;;;;;;16.88;96.83;99808.38;5010619;28;20207;-72
2022/05/24 02:05:11;;;;;;;17.10;15.50;;;;;;;16.83;96.85;99810.22;4991178;28;20219;-73
2022/05/24 02:07:37;;;;;;;14.63;13.23;;;;;;;16.81;96.25;99809.38;4990866;28;20208;-73
2022/05/24 02:10:03;;;;;;;10.57;9.57;;;;;;;16.76;95.51;99815.56;5005746;28;20187;-73
2022/05/24 02:12:40;;;;;;;10.70;9.27;;;;;;;16.81;95.65;99826.66;5009174;28;20189;-72
2022/05/24 02:15:11;;;;;;;9.13;8.33;;;;;;;16.82;94.51;99833.53;5010289;28;20183;-73
2022/05/24 02:18:08;;;;;;;8.03;7.30;;;;;;;16.80;94.11;99843.91;5008994;28;20219;-72
2022/05/24 02:20:37;;;;;;;6.93;6.27;;;;;;;16.69;93.67;99850.19;5009789;28;20184;-73
2022/05/24 02:23:06;;;;;;;5.50;5.00;;;;;;;16.57;93.17;99855.63;5010585;28;20183;-73
2022/05/24 02:25:41;;;;;;;5.03;4.53;;;;;;;16.50;92.21;99867.81;5009944;28;20660;-73
2022/05/24 02:28:09;;;;;;;4.90;4.10;;;;;;;16.36;91.39;99863.78;5010455;28;20213;-72
2022/05/24 02:30:38;;;;;;;4.53;4.13;;;;;;;16.33;90.33;99863.81;5009628;28;20708;-73
2022/05/24 02:33:04;;;;;;;5.50;4.20;;;;;;;16.30;90.27;99869.91;5010389;28;20780;-73
2022/05/24 02:35:31;;;;;;;4.93;4.43;;;;;;;16.31;91.02;99874.19;5010253;28;20277;-72
2022/05/24 02:37:56;;;;;;;8.37;5.17;;;;;;;16.31;90.84;99881.09;5008439;28;20294;-73
2022/05/24 02:43:06;;;;;;;6.30;5.67;;;;;;;16.33;91.10;99885.34;5008214;28;20664;-73
2022/05/24 02:45:31;;;;;;;5.97;5.37;;;;;;;16.31;92.00;99892.25;5009772;28;20187;-73
2022/05/24 02:47:57;;;;;;;7.10;6.50;;;;;;;16.15;92.95;99905.50;5009537;28;20907;-73
2022/05/24 02:50:23;;;;;;;9.90;8.33;;;;;;;16.04;93.60;99915.19;5009902;28;20198;-72
2022/05/24 02:52:49;;;;;;;10.10;9.20;;;;;;;16.00;93.19;99927.31;5009366;28;20182;-72
2022/05/24 02:55:17;;;;;;;14.53;10.67;;;;;;;15.94;92.36;99923.97;5007546;28;20715;-71
2022/05/24 02:57:42;;;;;;;12.10;10.57;;;;;;;15.78;91.73;99922.50;5009870;28;20215;-73
2022/05/24 03:00:12;;;;;;;13.17;10.93;;;;;;;15.75;91.79;99936.31;5009478;28;20183;-72
2022/05/24 03:02:39;;;;;;;13.07;11.53;;;;;;;15.75;91.22;99936.31;5008376;28;20191;-73
2022/05/24 03:05:07;;;;;;;11.93;10.67;;;;;;;15.68;91.03;99939.03;5009323;28;20194;-73
2022/05/24 03:10:17;;;;;;;13.20;11.43;;;;;;;15.51;91.59;99947.03;5009330;28;20179;-73
2022/05/24 03:15:26;;;;;;;12.33;11.03;;;;;;;15.60;90.67;99939.16;5009371;28;20210;-72
2022/05/24 03:17:51;;;;;;;15.37;11.03;;;;;;;15.59;90.35;99941.75;5009998;28;20637;-73
2022/05/24 03:20:17;;;;;;;12.47;11.13;;;;;;;15.57;90.10;99953.84;5009657;28;20191;-73
2022/05/24 03:22:42;;;;;;;12.73;10.33;;;;;;;15.58;90.28;99960.69;5008061;28;20951;-72
2022/05/24 03:25:09;;;;;;;12.87;11.20;;;;;;;15.52;90.59;99959.06;5009705;28;20183;-73
2022/05/24 03:27:34;;;;;;;12.30;11.03;;;;;;;15.43;89.71;99964.34;5024403;28;20206;-72
2022/05/24 03:30:00;;;;;;;12.57;11.13;;;;;;;15.36;91.05;99972.19;5009585;28;20255;-73
2022/05/24 03:32:25;;;;;;;11.33;10.23;;;;;;;15.33;90.84;99967.91;5007640;28;20191;-72
2022/05/24 03:34:50;;;;;;;13.27;10.40;;;;;;;15.40;90.56;99967.00;5009514;28;20186;-73
2022/05/24 03:37:16;;;;;;;17.63;10.27;;;;;;;15.35;89.97;99973.94;5009010;28;20964;-73
2022/05/24 03:39:41;;;;;;;12.90;10.43;;;;;;;15.37;90.34;99986.81;5009463;28;20641;-72
2022/05/24 03:42:07;;;;;;;13.00;10.50;;;;;;;15.35;89.74;99984.25;4991635;28;20268;-73
2022/05/24 03:44:32;;;;;;;11.90;9.97;;;;;;;15.30;89.71;99986.03;5006805;28;20198;-73
2022/05/24 03:46:58;;;;;;;11.60;10.40;;;;;;;15.30;90.51;100001.50;5009132;28;20207;-72
2022/05/24 03:49:23;;;;;;;11.07;9.90;;;;;;;15.34;90.15;100004.91;5024237;28;20199;-72
2022/05/24 03:51:49;;;;;;;12.33;9.80;;;;;;;15.29;90.24;100006.69;5009319;28;20187;-73
2022/05/24 03:54:15;;;;;;;13.20;11.67;;;;;;;15.24;91.13;100011.88;5008630;28;20190;-73
2022/05/24 03:57:59;;;;;;;12.50;11.20;;;;;;;15.32;90.50;100016.94;5009172;28;20219;-73
2022/05/24 03:59:29;;;;;;;14.13;10.80;;;;;;;15.29;90.67;100022.16;5008926;28;20183;-73
2022/05/24 04:01:54;;;;;;;13.53;10.67;;;;;;;15.24;89.96;100026.53;5009115;28;20194;-73
2022/05/24 04:04:19;;;;;;;11.13;10.03;;;;;;;15.25;90.24;100035.97;5009342;28;20653;-73
2022/05/24 04:06:46;;;;;;;13.80;10.37;;;;;;;15.26;90.41;100033.38;5010752;28;20747;-73
2022/05/24 04:09:11;;;;;;;11.90;10.13;;;;;;;15.24;90.89;100042.00;5012691;28;20274;-73
2022/05/24 04:11:37;;;;;;;11.60;10.20;;;;;;;15.28;90.19;100048.81;5012362;28;20278;-73
2022/05/24 04:14:03;;;;;;;10.60;9.10;;;;;;;15.28;90.15;100056.56;5012727;28;20253;-73
2022/05/24 04:16:29;;;;;;;10.50;9.40;;;;;;;15.27;90.37;100052.25;5012267;28;20230;-72
2022/05/24 04:18:54;;;;;;;10.27;9.00;;;;;;;15.29;89.93;100055.69;5012834;28;20234;-72
2022/05/24 04:21:19;;;;;;;10.70;9.60;;;;;;;15.27;90.80;100065.16;5012697;28;20190;-73
2022/05/24 04:23:45;;;;;;;12.87;9.90;;;;;;;15.22;90.65;100065.22;5012042;28;20187;-73
2022/05/24 04:26:10;;;;;;;12.60;11.03;;;;;;;15.18;91.20;100073.88;5011476;28;20226;-73
2022/05/24 04:28:36;;;;;;;13.27;10.63;;;;;;;15.13;91.21;100074.78;5009211;28;20314;-73
2022/05/24 04:31:01;;;;;;;11.00;9.53;;;;;;;15.11;90.87;100072.22;5012026;28;20191;-73
2022/05/24 04:33:27;;;;;;;11.93;10.53;;;;;;;15.11;91.44;100073.97;5011259;28;20201;-72
2022/05/24 04:35:53;;;;;;;13.07;11.37;;;;;;;15.15;91.38;100067.91;5009584;28;20203;-72
2022/05/24 04:38:18;;;;;;;13.70;11.83;;;;;;;15.15;91.30;100068.72;5011279;28;20704;-73
2022/05/24 04:43:28;;;;;;;13.23;11.60;;;;;;;15.27;91.18;100063.44;5012305;28;20641;-73
2022/05/24 04:45:55;;;;;;;14.77;11.37;;;;;;;15.24;90.78;100060.06;5011688;28;20217;-72
2022/05/24 04:48:23;;;;;;;11.20;9.93;;;;;;;15.25;89.76;100070.34;5010969;28;20232;-72
2022/05/24 04:50:53;;;;;;;12.43;9.67;;;;;;;15.25;89.79;100082.38;5010331;28;20286;-73
2022/05/24 04:53:19;;;;;;;10.20;9.13;;;;;;;15.29;89.22;100092.63;5012035;28;20189;-73
2022/05/24 04:55:44;;;;;;;11.33;8.43;;;;;;;15.27;88.10;100096.09;5011569;28;20203;-72
2022/05/24 04:58:11;;;;;;;9.37;8.13;;;;;;;15.26;88.49;100099.56;5011995;28;20230;-72
2022/05/24 05:00:38;;;;;;;9.27;7.43;;;;;;;15.26;88.22;100109.88;5010715;28;20649;-73
2022/05/24 05:03:11;;;;;;;8.27;7.47;;;;;;;15.27;88.17;100107.28;5011437;28;20198;-73
2022/05/24 05:05:40;;;;;;;7.60;6.77;;;;;;;15.27;88.22;100101.28;5011827;28;20753;-72
2022/05/24 05:08:07;;;;;;;6.97;6.17;;;;;;;15.25;87.58;100103.91;5011335;28;20191;-73
2022/05/24 05:10:34;;;;;;;7.10;6.40;;;;;;;15.28;87.30;100110.75;5010441;28;20683;-72
2022/05/24 05:13:00;;;;;;;7.70;6.67;;;;;;;15.26;87.45;100112.47;5009868;28;20206;-73
2022/05/24 05:15:26;;;;;;;9.37;5.97;;;;;;;15.24;88.12;100114.22;5011722;28;20206;-72
2022/05/24 05:18:01;;;;;;;7.50;6.60;;;;;;;15.18;88.44;100109.97;5010227;28;20910;-73
2022/05/24 05:20:26;;;;;;;9.47;7.00;;;;;;;15.24;87.81;100112.47;5010232;28;20182;-73
2022/05/24 05:22:51;;;;;;;8.93;6.30;;;;;;;15.20;88.01;100107.38;5011285;28;20194;-73
2022/05/24 05:25:17;;;;;;;8.93;6.40;;;;;;;15.21;88.27;100114.25;5009679;28;20191;-73
2022/05/24 05:27:44;;;;;;;9.03;7.00;;;;;;;15.19;88.47;100100.53;5010314;28;20241;-73
2022/05/24 05:33:02;;;;;;;7.70;6.50;;;;;;;15.25;88.07;100108.19;4994631;28;20199;-73
2022/05/24 05:35:28;;;;;;;8.00;6.37;;;;;;;15.30;87.13;100112.44;5010650;28;20179;-73
2022/05/24 05:37:53;;;;;;;8.23;7.20;;;;;;;15.45;87.05;100112.28;5009857;28;20716;-71
2022/05/24 05:40:18;;;;;;;7.53;6.77;;;;;;;15.50;86.18;100127.69;5009530;28;20194;-73
2022/05/24 05:42:44;;;;;;;7.97;6.17;;;;;;;15.61;84.80;100116.34;5026446;28;20186;-73
2022/05/24 05:45:11;;;;;;;9.60;7.13;;;;;;;15.80;84.30;100119.56;5011421;28;20919;-72
2022/05/24 05:47:37;;;;;;;7.27;6.57;;;;;;;16.01;83.24;100112.38;5010447;28;20207;-73
2022/05/24 05:50:04;;;;;;;9.13;6.50;;;;;;;16.13;83.19;100117.38;5010991;28;20775;-73
2022/05/24 05:52:29;;;;;;;6.93;5.70;;;;;;;16.45;82.64;100116.91;5010445;28;20191;-75
2022/05/24 05:54:54;;;;;;;8.03;5.93;;;;;;;16.67;80.71;100110.50;5026137;28;20191;-74
2022/05/24 05:57:20;;;;;;;7.07;5.23;;;;;;;16.76;81.41;100103.44;5010460;28;20215;-73
2022/05/24 05:59:47;;;;;;;7.53;5.53;;;;;;;16.74;80.77;100105.19;5010849;28;20672;-74
2022/05/24 06:02:12;;;;;;;6.10;5.50;;;;;;;16.86;79.37;100115.31;5010604;28;20194;-72
2022/05/24 06:04:38;;;;;;;5.77;5.17;;;;;;;16.94;78.98;100120.38;5026101;28;20198;-73
2022/05/24 06:07:03;;;;;;;5.80;5.27;;;;;;;16.94;78.76;100126.38;5009727;28;20215;-73
2022/05/24 06:09:29;;;;;;;5.77;5.27;;;;;;;16.75;79.91;100109.50;5010544;28;20183;-73
2022/05/24 06:11:59;;;;;;;6.43;5.83;;;;;;;16.50;79.16;100128.88;5009743;28;20209;-73
2022/05/24 06:14:25;;;;;;;9.27;6.00;;;;;;;16.35;79.78;100134.25;5010424;28;20210;-73
2022/05/24 06:16:50;;;;;;;6.37;5.67;;;;;;;16.16;79.68;100139.72;5009178;28;20619;-72
2022/05/24 06:19:15;;;;;;;6.63;6.03;;;;;;;16.18;80.77;100149.16;4994071;28;20242;-72
2022/05/24 06:21:41;;;;;;;6.30;5.23;;;;;;;16.17;80.82;100159.50;5001883;28;20187;-73
2022/05/24 06:24:07;;;;;;;6.20;5.40;;;;;;;16.35;80.77;100160.09;5002019;28;20196;-73
2022/05/24 06:26:34;;;;;;;6.70;5.57;;;;;;;16.31;81.00;100162.75;5009577;28;20202;-73
2022/05/24 06:29:00;;;;;;;7.00;5.57;;;;;;;16.20;80.78;100169.78;5008422;28;20206;-73
2022/05/24 06:31:25;;;;;;;6.60;5.40;;;;;;;16.31;80.94;100186.00;5009304;28;20203;-73
2022/05/24 06:33:51;;;;;;;6.03;5.30;;;;;;;16.32;80.59;100188.56;5010305;28;20329;-73
2022/05/24 06:36:17;;;;;;;6.23;5.63;;;;;;;16.35;81.25;100198.00;5009352;28;20264;-73
2022/05/24 06:38:42;;;;;;;7.47;6.43;;;;;;;16.22;80.82;100197.34;5025164;28;20221;-73
2022/05/24 06:41:07;;;;;;;7.67;6.17;;;;;;;16.45;80.04;100194.44;5009961;28;20592;-73
2022/05/24 06:43:34;;;;;;;8.60;5.97;;;;;;;16.61;79.25;100194.19;5009593;28;20210;-72
2022/05/24 06:45:59;;;;;;;8.27;6.43;;;;;;;16.54;78.71;100194.31;5024039;28;20305;-73
2022/05/24 06:48:25;;;;;;;7.30;6.40;;;;;;;16.74;78.84;100200.88;5008054;28;20189;-73
2022/05/24 06:50:51;;;;;;;7.20;6.50;;;;;;;16.83;79.18;100199.88;5009875;28;20672;-74
2022/05/24 06:53:17;;;;;;;7.67;6.80;;;;;;;16.87;77.14;100201.53;5009664;28;20599;-73
2022/05/24 06:55:43;;;;;;;9.90;7.30;;;;;;;16.70;78.06;100203.53;5009572;28;20207;-73
2022/05/24 06:58:08;;;;;;;8.33;7.57;;;;;;;16.76;77.92;100204.28;5009679;28;20219;-73
2022/05/24 07:03:18;;;;;;;7.07;6.33;;;;;;;17.24;76.02;100211.25;5009934;28;20187;-72
2022/05/24 07:05:44;;;;;;;7.60;6.77;;;;;;;17.66;75.62;100213.06;5009503;28;20214;-73
2022/05/24 07:08:16;;;;;;;7.77;7.07;;;;;;;17.86;74.72;100212.63;5008595;28;20292;-73
2022/05/24 07:10:43;;;;;;;7.83;7.03;;;;;;;17.67;74.15;100219.94;5007579;28;20584;-73
2022/05/24 07:13:15;;;;;;;7.07;6.37;;;;;;;17.92;73.68;100207.34;5021308;28;20323;-74
2022/05/24 07:15:41;;;;;;;9.57;7.20;;;;;;;18.45;71.38;100209.66;4990044;28;20210;-74
2022/05/24 07:18:06;;;;;;;7.20;6.50;;;;;;;18.45;69.30;100212.25;4989285;28;20215;-74
2022/05/24 07:20:33;;;;;;;8.37;6.67;;;;;;;18.55;70.08;100208.56;4989790;28;20246;-73
2022/05/24 07:23:14;;;;;;;7.40;6.23;;;;;;;18.56;71.63;100208.53;5020438;28;20194;-74
2022/05/24 07:25:41;;;;;;;7.33;6.37;;;;;;;18.13;70.63;100217.25;4991588;28;20215;-73
2022/05/24 07:28:08;;;;;;;6.97;6.30;;;;;;;18.25;70.16;100217.00;5009138;28;20182;-73
2022/05/24 07:30:33;;;;;;;6.27;5.67;;;;;;;18.66;70.25;100219.56;5009431;28;20281;-72
2022/05/24 07:32:59;;;;;;;7.00;6.30;;;;;;;19.01;69.74;100217.81;5009204;28;20270;-73
2022/05/24 07:35:24;;;;;;;7.87;6.73;;;;;;;18.46;69.82;100224.31;5008692;28;20183;-73
2022/05/24 07:37:50;;;;;;;7.33;6.23;;;;;;;18.31;69.18;100233.28;5008068;28;20715;-73
2022/05/24 07:45:49;;;;;;;9.67;6.77;;;;;;;17.89;72.03;100243.69;5012517;28;20211;-73
2022/05/24 07:48:15;;;;;;;8.13;7.07;;;;;;;17.51;73.19;100252.19;5013105;28;20203;-74
2022/05/24 07:50:41;;;;;;;9.63;7.10;;;;;;;17.52;73.77;100248.72;5012831;28;20214;-74
2022/05/24 07:53:08;;;;;;;7.93;7.13;;;;;;;17.49;73.38;100258.25;5012858;28;20683;-74
2022/05/24 07:55:33;;;;;;;8.63;7.30;;;;;;;17.50;73.52;100267.75;5011852;28;20199;-74
2022/05/24 07:57:59;;;;;;;7.63;6.90;;;;;;;17.49;73.84;100264.31;5012635;28;20654;-74
2022/05/24 08:00:25;;;;;;;10.60;7.67;;;;;;;17.84;73.51;100266.22;5013074;28;20241;-73
2022/05/24 08:02:51;;;;;;;9.23;7.37;;;;;;;18.06;72.79;100264.94;5012431;28;20191;-74
2022/05/24 08:05:18;;;;;;;8.47;7.00;;;;;;;18.58;70.42;100268.16;5013054;28;20908;-74
2022/05/24 08:07:45;;;;;;;7.53;6.73;;;;;;;18.35;71.39;100268.66;5012561;28;20187;-74
2022/05/24 08:10:11;;;;;;;9.67;7.43;;;;;;;18.20;71.48;100271.53;5011641;28;20209;-74
2022/05/24 08:12:36;;;;;;;9.27;8.00;;;;;;;18.08;71.48;100270.94;5011458;28;20191;-73
2022/05/24 08:15:02;;;;;;;9.77;7.43;;;;;;;18.27;71.27;100262.75;5012432;28;20639;-74
2022/05/24 08:17:28;;;;;;;9.93;7.33;;;;;;;18.49;71.81;100261.44;5012685;28;20226;-74
2022/05/24 08:19:54;;;;;;;8.23;7.17;;;;;;;18.91;69.28;100264.78;5012307;28;20198;-73
2022/05/24 08:22:19;;;;;;;9.97;7.87;;;;;;;18.79;68.26;100275.47;5012591;28;20183;-73
2022/05/24 08:24:45;;;;;;;8.20;7.20;;;;;;;18.62;68.26;100278.44;5012463;28;20187;-74
2022/05/24 08:27:12;;;;;;;8.40;7.17;;;;;;;18.65;68.78;100274.94;5011368;28;20207;-74
2022/05/24 08:29:38;;;;;;;8.60;7.63;;;;;;;18.92;67.35;100266.47;5011258;28;20289;-74
2022/05/24 08:32:04;;;;;;;8.80;7.50;;;;;;;19.07;67.88;100268.72;5027155;28;20341;-74
2022/05/24 08:34:31;;;;;;;8.00;6.63;;;;;;;19.10;67.86;100268.63;5012496;28;20191;-74
2022/05/24 08:36:56;;;;;;;10.27;7.07;;;;;;;19.17;67.93;100260.66;5011955;28;20686;-74
2022/05/24 08:39:22;;;;;;;8.40;7.50;;;;;;;18.83;67.86;100257.19;5012653;28;20199;-74
2022/05/24 08:42:17;;;;;;;8.73;7.63;;;;;;;19.01;67.06;100263.66;5027020;28;20306;-74
2022/05/24 08:50:24;;;;;;;8.73;7.70;;;;;;;19.98;64.66;100257.66;5012255;28;20573;-74
2022/05/24 08:52:56;;;;;;;10.87;8.50;;;;;;;19.66;63.75;100258.53;5011491;28;20192;-73
2022/05/24 08:55:21;;;;;;;10.47;7.67;;;;;;;20.86;61.77;100259.34;5012197;28;20207;-73
2022/05/24 08:57:56;;;;;;;8.00;7.20;;;;;;;20.04;63.05;100260.09;5010543;28;20732;-73
2022/05/24 09:00:26;;;;;;;10.93;7.30;;;;;;;19.84;62.93;100258.03;5010670;28;20191;-73
2022/05/24 09:02:51;;;;;;;7.80;7.00;;;;;;;20.26;62.07;100256.03;5011764;28;20187;-75
2022/05/24 09:05:32;;;;;;;8.23;7.17;;;;;;;19.64;63.52;100264.69;5010158;28;20191;-73
2022/05/24 09:08:18;;;;;;;7.60;6.80;;;;;;;19.88;62.36;100256.22;5011909;28;20178;-74
2022/05/24 09:10:53;;;;;;;8.10;6.97;;;;;;;20.19;63.22;100260.56;5010156;28;20263;-73
2022/05/24 09:13:24;;;;;;;8.83;7.00;;;;;;;20.47;62.62;100250.16;4993853;28;20209;-74
2022/05/24 09:16:01;;;;;;;6.63;5.90;;;;;;;21.18;60.15;100240.94;5009776;28;20222;-74
2022/05/24 09:18:42;;;;;;;7.07;6.00;;;;;;;21.52;57.96;100244.13;5011630;28;20226;-73
2022/05/24 09:21:18;;;;;;;7.87;7.07;;;;;;;21.76;56.29;100244.16;5011175;28;20187;-74
2022/05/24 09:23:47;;;;;;;9.20;7.63;;;;;;;22.16;56.79;100251.38;5011727;28;20293;-74
2022/05/24 09:26:20;;;;;;;7.30;6.53;;;;;;;22.35;56.37;100257.59;5010945;28;20199;-74
2022/05/24 09:28:56;;;;;;;6.77;5.73;;;;;;;21.62;57.27;100259.41;5011524;28;20204;-73
2022/05/24 09:31:30;;;;;;;7.03;6.33;;;;;;;20.57;59.24;100272.41;5011030;28;20183;-73
2022/05/24 09:34:04;;;;;;;5.70;5.10;;;;;;;21.43;58.69;100260.06;5011549;28;20675;-73
2022/05/24 09:36:39;;;;;;;5.77;5.27;;;;;;;21.15;56.90;100269.72;5011777;28;20241;-74
2022/05/24 09:39:21;;;;;;;5.57;4.67;;;;;;;21.56;55.04;100272.63;5009699;28;20194;-74
2022/05/24 09:41:58;;;;;;;6.67;5.17;;;;;;;21.58;56.30;100275.19;5011150;28;20187;-74
2022/05/24 09:44:27;;;;;;;6.10;4.90;;;;;;;21.87;55.41;100270.69;5008752;28;20304;-73
2022/05/24 09:46:53;;;;;;;5.77;5.20;;;;;;;20.76;55.57;100281.34;5010492;28;20264;-73
2022/05/24 09:49:33;;;;;;;6.17;5.07;;;;;;;20.13;57.40;100285.88;5010000;28;20195;-75
2022/05/24 09:52:14;;;;;;;5.63;5.10;;;;;;;19.98;59.10;100291.44;5010653;28;20680;-75
2022/05/24 09:55:00;;;;;;;7.17;5.27;;;;;;;19.84;59.24;100299.63;5010716;28;20194;-75
2022/05/24 09:57:28;;;;;;;7.47;5.60;;;;;;;19.52;59.59;100302.22;5009595;28;20211;-75
2022/05/24 10:00:23;;;;;;;7.67;5.20;;;;;;;19.30;61.31;100297.63;5010641;28;20290;-75
2022/05/24 10:03:02;;;;;;;8.20;5.90;;;;;;;19.09;61.86;100322.31;5010368;28;20199;-75
2022/05/24 10:05:28;;;;;;;8.07;5.93;;;;;;;19.04;61.88;100318.13;5010104;28;20179;-75
2022/05/24 10:08:14;;;;;;;7.67;5.50;;;;;;;18.93;62.44;100333.09;5010980;28;20242;-75
2022/05/24 10:10:43;;;;;;;7.87;6.00;;;;;;;18.48;61.93;100340.13;5009276;28;20641;-75
2022/05/24 10:13:32;;;;;;;7.27;6.43;;;;;;;18.09;64.64;100353.84;5009381;28;20668;-78
2022/05/24 10:16:20;;;;;;;7.80;6.57;;;;;;;17.84;65.27;100362.09;5008974;28;20298;-75
2022/05/24 10:19:00;;;;;;;13.63;7.57;;;;;;;17.58;66.77;100370.31;5009491;28;20239;-76
2022/05/24 10:21:49;;;;;;;10.93;8.90;;;;;;;17.57;70.20;100397.09;5010025;28;20217;-75
2022/05/24 10:24:42;;;;;;;12.17;9.43;;;;;;;16.95;74.63;100404.88;5010736;28;20179;-75
2022/05/24 10:27:17;;;;;;;13.10;10.07;;;;;;;16.18;76.43;100414.41;5008801;28;20207;-76
2022/05/24 10:29:58;;;;;;;12.50;10.23;;;;;;;15.86;78.11;100408.69;4992787;28;20671;-75
2022/05/24 10:39:08;;;;;;;11.30;9.47;;;;;;;15.59;79.50;100437.31;5012058;28;20221;-73
2022/05/24 10:41:36;;;;;;;10.50;9.27;;;;;;;15.42;80.78;100419.38;5005761;28;20195;-73
2022/05/24 10:44:19;;;;;;;15.07;9.50;;;;;;;15.87;80.51;100407.81;4988872;28;20196;-73
2022/05/24 10:47:06;;;;;;;10.20;8.97;;;;;;;16.04;80.43;100421.44;5005431;28;20227;-73
2022/05/24 10:49:56;;;;;;;11.43;9.33;;;;;;;15.95;81.17;100418.94;4990400;28;20187;-73
2022/05/24 10:52:37;;;;;;;11.63;8.83;;;;;;;16.14;80.43;100423.06;4990737;28;20176;-73
2022/05/24 10:55:09;;;;;;;11.70;9.43;;;;;;;16.42;81.76;100415.03;5005300;28;20203;-73
2022/05/24 10:57:54;;;;;;;9.43;8.13;;;;;;;16.08;80.81;100425.69;4990272;28;20216;-73
2022/05/24 11:00:24;;;;;;;9.77;6.90;;;;;;;16.06;78.04;100428.28;4990044;28;20249;-73
2022/05/24 11:03:00;;;;;;;6.70;4.40;;;;;;;15.96;76.63;100431.84;4989863;28;20203;-73
2022/05/24 11:05:30;;;;;;;5.83;4.07;;;;;;;15.99;76.66;100443.88;5005265;28;20179;-73
2022/05/24 11:08:12;;;;;;;5.23;2.90;;;;;;;15.68;75.88;100451.00;4989693;28;20195;-73
2022/05/24 11:10:41;;;;;;;5.93;3.20;;;;;;;15.59;75.55;100448.50;4990208;28;20267;-73
2022/05/24 11:13:12;;;;;;;4.63;3.17;;;;;;;15.42;76.27;100455.50;4989527;28;20188;-73
2022/05/24 11:15:44;;;;;;;4.07;2.93;;;;;;;15.24;75.92;100463.31;4989399;28;20187;-73
2022/05/24 11:18:17;;;;;;;4.53;3.00;;;;;;;15.44;77.24;100460.66;4989619;28;20212;-73
2022/05/24 11:20:49;;;;;;;3.03;2.60;;;;;;;15.22;76.49;100477.09;4990127;28;20276;-73
2022/05/24 11:23:21;;;;;;;4.57;2.60;;;;;;;15.12;75.95;100470.25;5004421;28;20270;-73
2022/05/24 11:25:56;;;;;;;5.67;2.83;;;;;;;14.82;76.79;100478.16;5005403;28;20222;-72
2022/05/24 11:28:27;;;;;;;3.87;2.80;;;;;;;14.68;77.25;100491.06;4990143;28;20743;-73
2022/05/24 11:30:54;;;;;;;5.93;2.80;;;;;;;14.69;77.47;100491.94;4989996;28;20188;-73
2022/05/24 11:33:40;;;;;;;4.47;3.00;;;;;;;14.82;78.71;100491.88;5005007;28;20187;-73
2022/05/24 11:36:27;;;;;;;4.07;2.67;;;;;;;15.07;76.31;100487.47;4989612;28;20277;-73
2022/05/24 11:38:53;;;;;;;4.77;2.80;;;;;;;15.36;76.74;100475.31;4989934;28;20294;-73
2022/05/24 11:41:19;;;;;;;5.23;3.07;;;;;;;15.45;75.87;100460.66;4989482;28;20216;-73
2022/05/24 11:43:44;;;;;;;4.70;2.87;;;;;;;15.77;73.99;100473.31;4989528;28;20192;-73
2022/05/24 11:46:37;;;;;;;4.87;2.70;;;;;;;16.35;73.14;100471.94;4989168;28;20222;-73
2022/05/24 11:49:10;;;;;;;3.60;2.57;;;;;;;16.74;71.56;100472.41;4988525;28;20279;-73
2022/05/24 11:51:45;;;;;;;4.30;2.57;;;;;;;17.23;69.55;100478.66;4989345;28;20192;-72
2022/05/24 11:54:21;;;;;;;3.17;2.57;;;;;;;17.76;71.67;100483.97;5028660;28;20618;-73
2022/05/24 11:57:03;;;;;;;4.60;2.30;;;;;;;17.59;71.08;100495.47;5027084;28;20205;-73
2022/05/24 11:59:40;;;;;;;3.10;2.37;;;;;;;17.68;70.58;100509.13;5029119;28;20714;-73
2022/05/24 12:02:32;;;;;;;3.43;2.40;;;;;;;17.62;68.21;100504.03;5028534;28;20734;-73
2022/05/24 12:08:26;;;;;;;4.93;2.97;;;;;;;17.80;68.44;100514.13;5027467;28;20273;-73
2022/05/24 12:11:06;;;;;;;4.77;3.00;;;;;;;18.17;67.92;100511.81;5029130;28;20281;-73
2022/05/24 12:13:44;;;;;;;5.27;3.90;;;;;;;18.22;67.96;100509.97;5028400;28;20244;-73
2022/05/24 12:16:33;;;;;;;5.00;3.53;;;;;;;18.33;67.25;100514.13;5028980;28;20202;-73
2022/05/24 12:19:02;;;;;;;5.13;3.47;;;;;;;18.58;68.75;100519.75;5028437;28;20244;-73
2022/05/24 12:21:50;;;;;;;6.43;4.23;;;;;;;18.57;67.59;100515.44;5028823;28;20269;-73